Time;durP1;ratioP1;P1;durP2;ratioP2;P2;SDS_P1;SDS_P2;PMS_P1;PMS_P2;Temp;Humidity;BMP_temperature;BMP_pressure;BME280_temperature;BME280_humidity;BME280_pressure;Samples;Min_cycle;Max_cycle;Signal;HPM_P1;HPM_P2
2023/06/30 00:02:00;;;;;;;4.50;1.08;;;15.00;99.90;;;;;;4970132;28;20490;-37
2023/06/30 00:04:30;;;;;;;5.68;0.98;;;15.00;99.90;;;;;;4972564;28;20039;-36
2023/06/30 00:06:56;;;;;;;3.28;1.35;;;15.00;99.90;;;;;;4967308;28;20150;-37
2023/06/30 00:09:22;;;;;;;3.55;0.77;;;14.90;99.90;;;;;;4972401;28;20493;-36
2023/06/30 00:11:54;;;;;;;3.15;0.80;;;14.90;99.90;;;;;;4971842;28;20134;-36
2023/06/30 00:14:21;;;;;;;3.50;0.90;;;14.90;99.90;;;;;;4963549;28;20047;-36
2023/06/30 00:16:49;;;;;;;4.20;1.10;;;14.80;99.90;;;;;;4967210;28;20124;-36
2023/06/30 00:19:15;;;;;;;3.45;0.70;;;14.80;99.90;;;;;;4968911;28;20489;-37
2023/06/30 00:21:41;;;;;;;5.65;1.05;;;14.80;99.90;;;;;;4969290;28;20046;-36
2023/06/30 00:24:10;;;;;;;4.25;0.63;;;14.80;99.90;;;;;;4971868;28;20885;-37
2023/06/30 00:26:36;;;;;;;4.00;0.95;;;14.80;99.90;;;;;;4969182;28;20054;-36
2023/06/30 00:29:02;;;;;;;4.88;1.13;;;14.70;99.90;;;;;;4972130;28;20112;-37
2023/06/30 00:31:28;;;;;;;3.78;0.80;;;14.70;99.90;;;;;;4969809;28;20485;-36
2023/06/30 00:33:55;;;;;;;4.78;0.75;;;14.70;99.90;;;;;;4970313;28;20050;-36
2023/06/30 00:36:21;;;;;;;4.18;0.73;;;14.70;99.90;;;;;;4968202;28;20049;-37
2023/06/30 00:38:47;;;;;;;4.95;0.88;;;14.70;99.90;;;;;;4970615;28;20512;-37
2023/06/30 00:41:13;;;;;;;4.63;1.00;;;14.60;99.90;;;;;;4969227;28;20062;-36
2023/06/30 00:43:38;;;;;;;5.63;1.17;;;14.60;99.90;;;;;;4972054;28;20054;-36
2023/06/30 00:46:05;;;;;;;2.65;0.68;;;14.60;99.90;;;;;;4969497;28;20740;-36
2023/06/30 00:48:31;;;;;;;5.18;1.23;;;14.60;99.90;;;;;;4964358;28;20051;-36
2023/06/30 00:50:57;;;;;;;9.10;1.70;;;14.60;99.90;;;;;;4967362;28;20045;-36
2023/06/30 00:53:24;;;;;;;3.40;0.70;;;14.60;99.90;;;;;;4969900;28;20055;-37
2023/06/30 00:55:50;;;;;;;3.72;0.75;;;14.60;99.90;;;;;;4968953;28;20125;-37
2023/06/30 00:58:17;;;;;;;3.47;0.88;;;14.50;99.90;;;;;;4969877;28;20094;-36
2023/06/30 01:00:43;;;;;;;2.55;0.68;;;14.50;99.90;;;;;;4952978;28;20054;-37
2023/06/30 01:03:26;;;;;;;5.80;0.90;;;14.50;99.90;;;;;;4973825;28;20047;-37
2023/06/30 01:06:13;;;;;;;2.28;0.70;;;14.40;99.90;;;;;;4970778;28;20547;-37
2023/06/30 01:09:03;;;;;;;3.40;0.70;;;14.40;99.90;;;;;;4968035;28;20398;-37
2023/06/30 01:11:31;;;;;;;5.32;0.90;;;14.40;99.90;;;;;;4960147;28;20046;-37
2023/06/30 01:13:58;;;;;;;4.63;0.88;;;14.30;99.90;;;;;;4952530;28;20047;-36
2023/06/30 01:16:26;;;;;;;3.38;0.95;;;14.30;99.90;;;;;;4950619;28;20043;-36
2023/06/30 01:18:55;;;;;;;4.07;0.60;;;14.30;99.90;;;;;;4946836;28;20051;-36
2023/06/30 01:21:22;;;;;;;2.50;0.80;;;14.30;99.90;;;;;;4946276;28;20070;-36
2023/06/30 01:24:16;;;;;;;3.55;0.60;;;14.30;99.90;;;;;;4956324;28;20051;-36
2023/06/30 01:26:42;;;;;;;4.45;0.63;;;14.20;99.90;;;;;;4951081;28;20087;-37
2023/06/30 01:29:10;;;;;;;2.35;1.08;;;14.20;99.90;;;;;;4947923;28;20051;-36
2023/06/30 01:31:36;;;;;;;4.68;0.80;;;14.20;99.90;;;;;;4946394;28;20567;-36
2023/06/30 01:34:02;;;;;;;1.70;0.63;;;14.20;99.90;;;;;;4950368;28;20051;-36
2023/06/30 01:36:28;;;;;;;4.72;0.63;;;14.20;99.90;;;;;;4948965;28;20125;-36
2023/06/30 01:38:54;;;;;;;3.40;0.80;;;14.10;99.90;;;;;;4950200;29;20051;-37
2023/06/30 01:41:23;;;;;;;4.40;0.90;;;14.20;99.90;;;;;;4949448;28;20051;-37
2023/06/30 01:43:50;;;;;;;2.40;0.50;;;14.10;99.90;;;;;;4949832;29;20565;-36
2023/06/30 01:46:16;;;;;;;5.22;1.58;;;14.10;99.90;;;;;;4945537;28;20051;-37
2023/06/30 01:48:43;;;;;;;5.07;0.93;;;14.10;99.90;;;;;;4943160;28;20102;-36
2023/06/30 01:51:13;;;;;;;3.38;0.60;;;14.10;99.90;;;;;;4951414;29;20043;-36
2023/06/30 01:53:39;;;;;;;3.80;0.70;;;14.00;99.90;;;;;;4950339;29;20106;-36
2023/06/30 01:56:05;;;;;;;9.43;1.08;;;14.00;99.90;;;;;;4949936;28;20051;-36
2023/06/30 01:58:31;;;;;;;3.30;1.00;;;14.00;99.90;;;;;;4947458;28;20515;-36
2023/06/30 02:00:57;;;;;;;3.20;0.80;;;13.90;99.90;;;;;;4945824;28;21460;-36
2023/06/30 02:03:23;;;;;;;2.60;0.93;;;13.90;99.90;;;;;;4944765;28;20106;-36
2023/06/30 02:05:49;;;;;;;3.83;0.55;;;13.80;99.90;;;;;;4946988;28;20074;-36
2023/06/30 02:08:15;;;;;;;4.45;0.73;;;13.80;99.90;;;;;;4946823;28;20054;-36
2023/06/30 02:10:40;;;;;;;4.80;0.70;;;13.80;99.90;;;;;;4946136;28;20047;-37
2023/06/30 02:13:06;;;;;;;1.40;0.50;;;13.80;99.90;;;;;;4957960;28;20051;-36
2023/06/30 02:15:32;;;;;;;2.63;0.90;;;13.70;99.90;;;;;;4963281;28;20051;-36
2023/06/30 02:17:58;;;;;;;3.92;0.95;;;13.70;99.90;;;;;;4964131;28;20419;-36
2023/06/30 02:20:24;;;;;;;4.82;1.02;;;13.70;99.90;;;;;;4967194;28;20277;-36
2023/06/30 02:22:50;;;;;;;4.35;1.33;;;13.70;99.90;;;;;;4963949;28;20464;-36
2023/06/30 02:25:16;;;;;;;3.95;0.82;;;13.60;99.90;;;;;;4966877;28;20624;-36
2023/06/30 02:27:45;;;;;;;5.72;0.88;;;13.60;99.90;;;;;;4945691;28;20130;-36
2023/06/30 02:30:11;;;;;;;3.17;0.90;;;13.50;99.90;;;;;;4967160;28;20097;-36
2023/06/30 02:32:37;;;;;;;4.00;1.00;;;13.50;99.90;;;;;;4964932;28;20054;-36
2023/06/30 02:35:05;;;;;;;4.05;0.95;;;13.50;99.90;;;;;;4966944;28;20129;-36
2023/06/30 02:37:31;;;;;;;5.13;1.10;;;13.50;99.90;;;;;;4962916;28;20529;-36
2023/06/30 02:39:56;;;;;;;2.30;0.80;;;13.50;99.90;;;;;;4967367;28;20042;-36
2023/06/30 02:42:22;;;;;;;2.97;0.60;;;13.50;99.90;;;;;;4965062;28;20058;-36
2023/06/30 02:44:48;;;;;;;3.53;0.88;;;13.40;99.90;;;;;;4963957;28;20059;-36
2023/06/30 02:47:13;;;;;;;3.67;0.80;;;13.40;99.90;;;;;;4966854;28;20121;-36
2023/06/30 02:49:39;;;;;;;2.17;0.60;;;13.40;99.90;;;;;;4967365;28;20513;-36
2023/06/30 02:52:06;;;;;;;3.13;0.80;;;13.40;99.90;;;;;;4971428;28;20047;-36
2023/06/30 02:54:34;;;;;;;3.17;0.73;;;13.40;99.90;;;;;;4968590;28;20046;-36
2023/06/30 02:56:59;;;;;;;2.88;0.95;;;13.30;99.90;;;;;;4970205;28;20050;-36
2023/06/30 02:59:25;;;;;;;2.33;0.70;;;13.30;99.90;;;;;;4979418;28;20413;-37
2023/06/30 03:01:51;;;;;;;1.45;0.60;;;13.30;99.90;;;;;;4969520;28;20120;-36
2023/06/30 03:04:17;;;;;;;2.08;0.70;;;13.30;99.90;;;;;;4971574;28;20138;-36
2023/06/30 03:06:42;;;;;;;2.65;0.40;;;13.20;99.90;;;;;;4969092;28;20138;-36
2023/06/30 03:09:08;;;;;;;4.93;0.80;;;13.20;99.90;;;;;;4967295;28;20051;-36
2023/06/30 03:11:34;;;;;;;2.65;0.50;;;13.20;99.90;;;;;;4970314;28;20398;-36
2023/06/30 03:14:00;;;;;;;2.88;0.60;;;13.20;99.90;;;;;;4953988;28;20051;-37
2023/06/30 03:16:26;;;;;;;4.63;0.70;;;13.20;99.90;;;;;;4970427;28;20061;-37
2023/06/30 03:18:52;;;;;;;3.30;0.50;;;13.20;99.90;;;;;;4968536;28;20496;-36
2023/06/30 03:21:18;;;;;;;4.00;0.65;;;13.20;99.90;;;;;;4964232;28;20090;-36
2023/06/30 03:23:45;;;;;;;4.20;0.98;;;13.10;99.90;;;;;;4971636;28;20055;-36
2023/06/30 03:26:13;;;;;;;1.42;0.45;;;13.10;99.90;;;;;;4969853;28;20047;-36
2023/06/30 03:28:39;;;;;;;2.40;0.50;;;13.10;99.90;;;;;;4967251;28;20054;-36
2023/06/30 03:31:04;;;;;;;1.95;0.68;;;13.10;99.90;;;;;;4972107;28;20460;-36
2023/06/30 03:33:30;;;;;;;3.45;1.10;;;13.10;99.90;;;;;;4970027;28;20457;-36
2023/06/30 03:35:56;;;;;;;4.00;0.70;;;13.10;99.90;;;;;;4969790;28;20098;-36
2023/06/30 03:38:21;;;;;;;1.75;0.60;;;13.00;99.90;;;;;;4972711;28;20069;-37
2023/06/30 03:40:47;;;;;;;2.95;0.55;;;13.00;99.90;;;;;;4966819;28;20512;-36
2023/06/30 03:43:13;;;;;;;4.97;0.90;;;13.00;99.90;;;;;;4968687;28;20043;-36
2023/06/30 03:45:39;;;;;;;3.30;0.77;;;13.00;99.90;;;;;;4974618;28;20170;-36
2023/06/30 03:48:05;;;;;;;2.47;0.70;;;12.90;99.90;;;;;;4967914;28;20432;-37
2023/06/30 03:50:30;;;;;;;1.65;0.50;;;12.90;99.90;;;;;;4968526;28;20149;-36
2023/06/30 03:52:56;;;;;;;2.05;0.70;;;12.90;99.90;;;;;;4969016;28;20050;-37
2023/06/30 03:55:22;;;;;;;4.88;0.80;;;12.90;99.90;;;;;;4969736;28;20415;-36
2023/06/30 03:57:47;;;;;;;3.42;0.80;;;12.90;99.90;;;;;;4967468;28;20130;-37
2023/06/30 04:00:14;;;;;;;3.13;0.80;;;12.90;99.90;;;;;;4969622;28;20054;-36
2023/06/30 04:02:39;;;;;;;3.33;1.02;;;12.90;99.90;;;;;;4967073;28;20544;-36
2023/06/30 04:05:05;;;;;;;1.48;0.73;;;12.90;99.90;;;;;;4970162;28;20145;-37
2023/06/30 04:07:31;;;;;;;2.97;0.70;;;12.90;99.90;;;;;;4969377;28;20046;-36
2023/06/30 04:09:57;;;;;;;2.40;0.70;;;12.90;99.90;;;;;;4972982;28;20533;-37
2023/06/30 04:12:22;;;;;;;5.25;1.00;;;12.90;99.90;;;;;;4969003;28;20110;-36
2023/06/30 04:14:48;;;;;;;3.65;0.82;;;12.90;99.90;;;;;;4966229;28;20571;-37
2023/06/30 04:17:14;;;;;;;4.60;0.90;;;12.90;99.90;;;;;;4968187;28;20065;-37
2023/06/30 04:19:40;;;;;;;3.40;1.38;;;12.90;99.90;;;;;;4967346;28;20043;-37
2023/06/30 04:22:05;;;;;;;3.35;1.10;;;12.80;99.90;;;;;;4971089;28;20047;-36
2023/06/30 04:24:31;;;;;;;3.15;0.95;;;12.80;99.90;;;;;;4969039;28;20408;-36
2023/06/30 04:26:57;;;;;;;3.42;0.90;;;12.80;99.90;;;;;;4970465;28;20537;-36
2023/06/30 04:29:23;;;;;;;3.08;0.80;;;12.80;99.90;;;;;;4970698;28;20059;-37
2023/06/30 04:31:48;;;;;;;2.83;0.80;;;12.90;99.90;;;;;;4967969;28;20047;-37
2023/06/30 04:34:14;;;;;;;2.70;1.00;;;12.90;99.90;;;;;;4971261;28;20567;-37
2023/06/30 04:36:40;;;;;;;4.22;1.02;;;12.90;99.90;;;;;;4968019;28;20544;-36
2023/06/30 04:39:06;;;;;;;5.47;1.13;;;13.00;99.90;;;;;;4950440;28;20382;-37
2023/06/30 04:41:32;;;;;;;5.28;0.90;;;13.00;99.90;;;;;;4971075;28;20049;-36
2023/06/30 04:43:59;;;;;;;3.75;0.82;;;13.00;99.90;;;;;;4964364;28;20401;-37
2023/06/30 04:46:25;;;;;;;2.22;1.20;;;13.00;99.90;;;;;;4967730;28;20054;-37
2023/06/30 04:48:51;;;;;;;4.72;1.00;;;13.00;99.90;;;;;;4969810;28;20097;-36
2023/06/30 04:51:18;;;;;;;5.68;1.08;;;13.00;99.90;;;;;;4970351;28;20054;-36
2023/06/30 04:53:44;;;;;;;3.72;0.88;;;13.00;99.90;;;;;;4958170;28;20055;-37
2023/06/30 04:56:10;;;;;;;4.22;0.90;;;13.10;99.90;;;;;;4970567;28;20106;-36
2023/06/30 04:58:35;;;;;;;5.10;1.10;;;13.10;99.90;;;;;;4970208;28;20050;-36
2023/06/30 05:01:01;;;;;;;3.90;1.77;;;13.20;99.90;;;;;;4969278;28;20137;-37
2023/06/30 05:03:27;;;;;;;4.15;1.58;;;13.20;99.90;;;;;;4968929;28;20468;-37
2023/06/30 05:05:52;;;;;;;2.53;1.30;;;13.20;99.90;;;;;;4965673;28;20070;-37
2023/06/30 05:08:18;;;;;;;6.20;1.40;;;13.30;99.90;;;;;;4965050;28;20054;-37
2023/06/30 05:10:44;;;;;;;7.40;1.20;;;13.40;99.90;;;;;;4964846;28;20066;-36
2023/06/30 05:13:09;;;;;;;6.07;1.67;;;13.50;99.90;;;;;;4967481;28;20062;-37
2023/06/30 05:15:35;;;;;;;6.70;1.70;;;13.50;99.90;;;;;;4969186;28;20042;-36
2023/06/30 05:18:01;;;;;;;4.18;1.63;;;13.50;99.90;;;;;;4967687;28;20151;-37
2023/06/30 05:20:26;;;;;;;7.47;1.50;;;13.60;99.90;;;;;;4968186;28;20085;-36
2023/06/30 05:22:52;;;;;;;5.28;1.40;;;13.70;99.90;;;;;;4965065;28;20597;-37
2023/06/30 05:25:18;;;;;;;4.65;1.20;;;13.80;99.90;;;;;;4968584;28;20050;-37
2023/06/30 05:27:43;;;;;;;2.78;1.15;;;13.90;99.90;;;;;;4968823;28;20129;-37
2023/06/30 05:30:10;;;;;;;5.07;1.20;;;14.00;99.90;;;;;;4948694;28;20067;-37
2023/06/30 05:32:35;;;;;;;2.83;1.20;;;14.10;99.90;;;;;;4961785;28;20133;-36
2023/06/30 05:35:01;;;;;;;4.40;0.90;;;14.20;99.90;;;;;;4960626;28;20050;-37
2023/06/30 05:37:26;;;;;;;5.43;1.88;;;14.30;99.90;;;;;;4969272;28;20479;-37
2023/06/30 05:39:52;;;;;;;4.78;1.13;;;14.40;99.90;;;;;;4962986;28;20050;-37
2023/06/30 05:42:18;;;;;;;2.92;1.00;;;14.60;99.90;;;;;;4940546;28;20090;-37
2023/06/30 05:44:44;;;;;;;7.20;1.50;;;14.70;99.90;;;;;;4957001;28;20051;-36
2023/06/30 05:47:09;;;;;;;5.07;1.00;;;14.80;99.90;;;;;;4958474;28;20058;-37
2023/06/30 05:49:35;;;;;;;3.95;0.90;;;15.00;99.90;;;;;;4965700;28;20051;-37
2023/06/30 05:52:01;;;;;;;3.92;0.73;;;15.10;99.90;;;;;;4960085;28;20043;-36
2023/06/30 05:54:26;;;;;;;4.55;0.85;;;15.20;99.90;;;;;;4951362;28;20062;-37
2023/06/30 05:56:52;;;;;;;2.95;0.50;;;15.30;99.90;;;;;;4964755;28;20405;-36
2023/06/30 05:59:18;;;;;;;2.88;0.68;;;15.50;99.90;;;;;;4964874;28;20113;-36
2023/06/30 06:01:43;;;;;;;2.28;0.50;;;15.60;99.90;;;;;;4960291;28;20453;-37
2023/06/30 06:04:10;;;;;;;3.70;0.77;;;15.80;99.90;;;;;;4968381;28;20412;-37
2023/06/30 06:06:37;;;;;;;3.53;0.40;;;15.90;99.90;;;;;;4974899;28;20043;-36
2023/06/30 06:09:03;;;;;;;2.88;0.50;;;16.00;99.90;;;;;;4967142;28;20488;-37
2023/06/30 06:11:28;;;;;;;5.40;0.70;;;16.10;99.90;;;;;;4966025;28;20063;-37
2023/06/30 06:13:54;;;;;;;3.45;0.52;;;16.20;99.90;;;;;;4965583;28;20035;-37
2023/06/30 06:16:20;;;;;;;3.90;0.45;;;16.30;99.90;;;;;;4965857;28;20051;-37
2023/06/30 06:18:47;;;;;;;5.00;0.60;;;16.30;99.90;;;;;;4956691;28;20046;-37
2023/06/30 06:21:13;;;;;;;4.50;0.52;;;16.40;99.90;;;;;;4963164;28;20346;-36
2023/06/30 06:23:38;;;;;;;1.70;0.40;;;16.40;99.90;;;;;;4965357;28;20061;-37
2023/06/30 06:26:04;;;;;;;0.95;0.40;;;16.40;99.90;;;;;;4971400;28;20432;-36
2023/06/30 06:28:30;;;;;;;4.07;0.60;;;16.40;99.90;;;;;;4965221;28;20610;-37
2023/06/30 06:30:56;;;;;;;2.15;0.47;;;16.40;99.90;;;;;;4973161;28;20065;-37
2023/06/30 06:33:21;;;;;;;2.83;0.50;;;16.50;99.90;;;;;;4972744;28;20117;-37
2023/06/30 06:35:53;;;;;;;6.13;0.95;;;16.50;99.90;;;;;;4965532;28;20058;-37
2023/06/30 06:38:19;;;;;;;4.82;0.60;;;16.60;99.90;;;;;;4961625;28;20504;-37
2023/06/30 06:40:48;;;;;;;3.08;0.47;;;16.60;99.90;;;;;;4973965;28;20057;-37
2023/06/30 06:43:14;;;;;;;3.25;0.57;;;16.70;99.90;;;;;;4971352;28;20061;-37
2023/06/30 06:45:41;;;;;;;1.67;0.40;;;16.80;99.90;;;;;;4966230;28;20051;-36
2023/06/30 06:48:26;;;;;;;3.03;0.40;;;16.80;99.90;;;;;;4968400;28;20074;-37
2023/06/30 06:51:02;;;;;;;1.50;0.43;;;16.80;99.90;;;;;;4973356;28;20069;-37
2023/06/30 06:56:04;;;;;;;2.58;0.63;;;16.80;99.90;;;;;;1474301;26;20057;-87
2023/06/30 06:58:31;;;;;;;2.42;0.40;;;17.00;99.90;;;;;;5027148;28;20111;-87
2023/06/30 07:00:57;;;;;;;5.80;0.50;;;17.00;99.90;;;;;;5075230;23;20057;-36
2023/06/30 07:03:23;;;;;;;3.53;0.43;;;17.00;99.90;;;;;;4996907;28;20048;-35
2023/06/30 07:05:49;;;;;;;2.90;0.73;;;17.10;99.90;;;;;;5006049;28;20053;-35
2023/06/30 07:08:16;;;;;;;5.55;0.50;;;17.10;99.90;;;;;;5000190;28;20058;-35
2023/06/30 07:10:46;;;;;;;1.38;0.50;;;17.10;99.90;;;;;;5004787;28;20054;-35
2023/06/30 07:13:13;;;;;;;3.60;0.52;;;17.20;99.90;;;;;;5007121;28;20779;-35
2023/06/30 07:15:39;;;;;;;2.28;0.60;;;17.20;99.90;;;;;;5008176;28;20495;-35
2023/06/30 07:18:05;;;;;;;2.67;0.50;;;17.30;99.90;;;;;;5012244;28;20075;-35
2023/06/30 07:20:30;;;;;;;2.33;0.40;;;17.40;99.90;;;;;;5009849;28;20050;-35
2023/06/30 07:22:57;;;;;;;4.72;0.70;;;17.40;99.90;;;;;;5008753;28;20372;-35
2023/06/30 07:25:24;;;;;;;2.10;0.40;;;17.40;99.90;;;;;;5019713;28;20122;-35
2023/06/30 07:27:53;;;;;;;3.90;0.68;;;17.40;99.90;;;;;;5012664;28;20065;-35
2023/06/30 07:30:23;;;;;;;2.90;0.60;;;17.50;99.90;;;;;;5008692;28;20053;-35
2023/06/30 07:32:49;;;;;;;1.67;0.40;;;17.50;99.90;;;;;;5006714;28;20065;-35
2023/06/30 07:35:18;;;;;;;1.35;0.35;;;17.60;99.90;;;;;;5013429;28;20050;-35
2023/06/30 07:37:45;;;;;;;2.92;0.63;;;17.60;99.90;;;;;;5012560;28;20056;-35
2023/06/30 07:40:11;;;;;;;2.22;0.52;;;17.60;99.90;;;;;;5010951;28;20054;-35
2023/06/30 07:42:38;;;;;;;1.80;0.40;;;17.60;99.90;;;;;;5010700;28;20385;-35
2023/06/30 07:45:12;;;;;;;4.00;0.40;;;17.50;99.90;;;;;;5011961;28;20499;-35
2023/06/30 07:47:42;;;;;;;3.22;0.50;;;17.50;99.90;;;;;;5005804;28;20109;-35
2023/06/30 07:50:12;;;;;;;1.90;0.40;;;17.40;99.90;;;;;;5010993;28;20108;-35
2023/06/30 07:52:43;;;;;;;5.10;0.70;;;17.50;99.90;;;;;;5010395;28;20135;-35
2023/06/30 07:55:13;;;;;;;3.85;0.60;;;17.70;99.90;;;;;;5006355;28;20049;-35
2023/06/30 07:57:39;;;;;;;3.20;0.77;;;17.90;99.90;;;;;;5011492;28;20045;-35
2023/06/30 08:00:06;;;;;;;0.73;0.47;;;18.20;99.90;;;;;;5011373;28;20521;-35
2023/06/30 08:02:32;;;;;;;2.35;0.40;;;18.40;99.90;;;;;;5010564;28;20046;-35
2023/06/30 08:04:57;;;;;;;2.72;0.50;;;18.50;99.90;;;;;;5008533;28;20041;-35
2023/06/30 08:07:23;;;;;;;3.25;0.40;;;18.70;99.90;;;;;;5009010;28;20057;-35
2023/06/30 08:09:49;;;;;;;1.45;0.32;;;18.80;99.90;;;;;;5009662;28;21607;-35
2023/06/30 08:12:15;;;;;;;2.28;0.50;;;19.00;99.90;;;;;;5010720;28;20046;-35
2023/06/30 08:14:41;;;;;;;2.63;0.50;;;19.20;99.90;;;;;;4999884;28;20060;-35
2023/06/30 08:17:06;;;;;;;1.25;0.40;;;19.30;99.90;;;;;;4999168;28;20054;-35
2023/06/30 08:19:32;;;;;;;3.28;0.60;;;19.40;99.90;;;;;;5008617;28;20045;-35
2023/06/30 08:21:58;;;;;;;2.22;0.55;;;19.50;99.90;;;;;;5007670;28;20053;-35
2023/06/30 08:24:24;;;;;;;2.03;0.57;;;19.40;99.90;;;;;;5005271;28;20057;-35
2023/06/30 08:26:49;;;;;;;2.15;0.50;;;19.20;99.90;;;;;;5008202;28;20412;-35
2023/06/30 08:29:15;;;;;;;2.67;0.47;;;19.10;99.90;;;;;;4996253;28;20042;-35
2023/06/30 08:31:40;;;;;;;1.40;0.32;;;19.10;99.90;;;;;;5005876;28;20050;-35
2023/06/30 08:34:08;;;;;;;4.05;0.60;;;19.20;99.90;;;;;;5011934;28;20498;-35
2023/06/30 08:36:34;;;;;;;1.67;0.50;;;19.30;99.90;;;;;;5012937;28;20055;-35
2023/06/30 08:39:00;;;;;;;3.25;0.80;;;19.40;99.90;;;;;;5016330;28;20072;-36
2023/06/30 08:41:27;;;;;;;2.60;0.75;;;19.50;99.90;;;;;;5010622;28;20050;-35
2023/06/30 08:43:56;;;;;;;3.33;0.63;;;19.40;99.90;;;;;;5015373;28;20088;-35
2023/06/30 08:46:24;;;;;;;3.17;0.50;;;19.30;99.90;;;;;;5010367;28;20081;-35
2023/06/30 08:48:51;;;;;;;3.10;0.80;;;19.40;99.90;;;;;;5012324;28;20045;-35
2023/06/30 08:51:18;;;;;;;5.80;0.70;;;19.50;99.90;;;;;;5012428;28;20068;-35
2023/06/30 08:53:46;;;;;;;2.22;0.63;;;19.60;99.90;;;;;;5003533;28;20060;-35
2023/06/30 08:56:13;;;;;;;3.22;0.55;;;19.70;99.90;;;;;;5002013;28;20530;-35
2023/06/30 08:58:39;;;;;;;3.10;0.80;;;19.80;99.90;;;;;;4997694;28;20046;-35
2023/06/30 09:01:05;;;;;;;2.15;0.50;;;19.50;99.90;;;;;;5004540;28;21340;-35
2023/06/30 09:03:31;;;;;;;1.95;0.68;;;19.40;99.90;;;;;;5010585;28;20188;-35
2023/06/30 09:05:59;;;;;;;4.95;0.50;;;19.40;99.90;;;;;;5009396;28;20050;-35
2023/06/30 09:08:44;;;;;;;2.20;0.50;;;19.50;99.90;;;;;;5009256;28;20056;-35
2023/06/30 09:11:12;;;;;;;2.80;0.60;;;19.50;99.90;;;;;;5003680;28;20126;-35
2023/06/30 09:13:39;;;;;;;3.95;0.70;;;19.80;99.90;;;;;;5008467;28;20053;-35
2023/06/30 09:16:10;;;;;;;8.13;0.50;;;19.90;99.90;;;;;;5008033;28;20050;-35
2023/06/30 09:18:36;;;;;;;2.35;0.40;;;20.00;99.90;;;;;;5004181;28;20049;-35
2023/06/30 09:21:05;;;;;;;2.65;0.50;;;20.00;99.90;;;;;;5007310;28;20092;-35
2023/06/30 09:23:31;;;;;;;1.33;0.40;;;20.00;99.90;;;;;;5008118;28;20136;-35
2023/06/30 09:25:57;;;;;;;2.13;0.40;;;20.10;99.90;;;;;;5002457;28;20073;-35
2023/06/30 09:28:23;;;;;;;3.55;0.43;;;20.20;99.90;;;;;;4997685;28;20145;-35
2023/06/30 09:30:49;;;;;;;2.95;0.40;;;20.20;99.90;;;;;;4990930;28;20046;-35
2023/06/30 09:33:16;;;;;;;2.90;0.50;;;20.20;99.90;;;;;;4988542;28;20112;-35
2023/06/30 09:35:43;;;;;;;4.05;0.50;;;20.30;99.90;;;;;;4989424;28;20078;-35
2023/06/30 09:38:13;;;;;;;1.25;0.30;;;20.40;99.90;;;;;;4981108;28;20108;-35
2023/06/30 09:40:42;;;;;;;1.33;0.68;;;20.60;99.90;;;;;;4990661;28;20051;-35
2023/06/30 09:43:09;;;;;;;4.32;0.50;;;20.70;99.90;;;;;;4982599;28;20057;-35
2023/06/30 09:45:35;;;;;;;2.15;0.45;;;20.70;99.90;;;;;;4986602;28;20062;-35
2023/06/30 09:48:01;;;;;;;1.23;0.50;;;20.80;99.90;;;;;;4993539;28;20049;-35
2023/06/30 09:50:29;;;;;;;1.58;0.40;;;21.00;99.90;;;;;;4991884;28;20113;-35
2023/06/30 09:52:55;;;;;;;1.77;0.60;;;21.20;99.90;;;;;;4983853;28;20050;-35
2023/06/30 09:55:21;;;;;;;2.97;0.40;;;21.30;99.90;;;;;;4984491;28;20058;-35
2023/06/30 09:57:46;;;;;;;2.05;0.55;;;21.50;99.90;;;;;;4984877;28;20499;-35
2023/06/30 10:00:14;;;;;;;2.15;0.45;;;21.60;99.90;;;;;;4987758;28;20062;-36
2023/06/30 10:02:40;;;;;;;1.88;0.68;;;21.50;99.90;;;;;;4980611;28;20057;-35
2023/06/30 10:05:12;;;;;;;4.18;0.50;;;21.20;99.90;;;;;;4981365;28;20054;-34
2023/06/30 10:07:40;;;;;;;3.05;0.47;;;21.00;99.90;;;;;;4987707;28;20081;-34
2023/06/30 10:10:12;;;;;;;1.00;0.50;;;20.80;99.90;;;;;;4983847;28;20057;-34
2023/06/30 10:12:39;;;;;;;1.85;0.80;;;20.70;99.90;;;;;;4986910;28;20085;-34
2023/06/30 10:15:08;;;;;;;3.13;1.00;;;20.90;99.90;;;;;;4987446;28;20116;-34
2023/06/30 10:17:35;;;;;;;3.25;0.47;;;21.10;99.90;;;;;;4990098;28;20058;-34
2023/06/30 10:20:03;;;;;;;1.35;0.50;;;21.20;99.90;;;;;;4969133;28;20080;-34
2023/06/30 10:22:29;;;;;;;1.42;0.50;;;21.30;99.90;;;;;;4987489;28;20046;-34
2023/06/30 10:24:56;;;;;;;2.25;0.80;;;21.50;99.90;;;;;;4985562;28;20096;-35
2023/06/30 10:27:23;;;;;;;1.35;0.50;;;21.60;99.90;;;;;;4983372;28;20567;-35
2023/06/30 10:29:49;;;;;;;2.95;0.57;;;21.80;99.90;;;;;;4985802;28;20073;-36
2023/06/30 10:32:19;;;;;;;2.47;0.57;;;21.90;99.90;;;;;;4985640;28;20503;-36
2023/06/30 10:34:47;;;;;;;2.33;0.60;;;21.90;99.90;;;;;;4968330;28;20050;-35
2023/06/30 10:37:14;;;;;;;3.28;0.60;;;21.90;99.90;;;;;;4980589;28;20109;-35
2023/06/30 10:39:39;;;;;;;1.77;1.00;;;21.90;99.90;;;;;;4985015;28;20097;-35
2023/06/30 10:42:06;;;;;;;3.65;0.65;;;21.70;99.90;;;;;;4985907;28;20104;-35
2023/06/30 10:44:45;;;;;;;2.40;0.65;;;21.50;99.90;;;;;;4989207;28;20050;-35
2023/06/30 10:47:11;;;;;;;2.67;0.70;;;21.50;99.90;;;;;;4979774;28;20173;-35
2023/06/30 10:49:39;;;;;;;3.72;0.80;;;21.40;99.90;;;;;;4989143;28;20598;-35
2023/06/30 10:52:10;;;;;;;3.17;0.65;;;21.20;99.90;;;;;;4987528;28;20109;-35
2023/06/30 10:54:46;;;;;;;1.50;0.52;;;21.00;99.90;;;;;;4983107;28;20435;-35
2023/06/30 10:57:25;;;;;;;1.73;0.70;;;20.90;99.90;;;;;;4985022;28;20054;-35
2023/06/30 11:00:11;;;;;;;4.63;0.90;;;20.90;99.90;;;;;;4977198;28;20046;-35
2023/06/30 11:02:54;;;;;;;1.95;0.50;;;21.00;99.90;;;;;;4982279;28;20078;-35
2023/06/30 11:05:24;;;;;;;4.15;0.82;;;21.10;99.90;;;;;;4980591;28;20539;-35
2023/06/30 11:07:54;;;;;;;5.53;1.05;;;21.20;99.90;;;;;;4987225;28;20070;-35
2023/06/30 11:10:44;;;;;;;2.92;0.70;;;21.00;99.90;;;;;;4989864;28;20050;-35
2023/06/30 11:13:10;;;;;;;1.85;0.60;;;20.90;99.90;;;;;;4981184;28;20046;-36
2023/06/30 11:15:40;;;;;;;2.13;0.50;;;20.90;99.90;;;;;;4989161;28;20109;-35
2023/06/30 11:18:13;;;;;;;2.72;0.70;;;20.90;99.90;;;;;;4989968;28;20050;-35
2023/06/30 11:20:56;;;;;;;1.83;0.57;;;21.10;99.90;;;;;;4989432;28;20504;-35
2023/06/30 11:23:22;;;;;;;2.97;0.57;;;21.40;99.90;;;;;;4988731;28;20050;-35
2023/06/30 11:25:48;;;;;;;1.77;0.40;;;21.70;99.90;;;;;;4990859;28;20108;-35
2023/06/30 11:28:14;;;;;;;1.55;0.57;;;22.00;99.90;;;;;;4989396;28;20081;-36
2023/06/30 11:30:41;;;;;;;2.38;0.40;;;22.30;99.90;;;;;;4989411;28;20466;-36
2023/06/30 11:33:07;;;;;;;2.28;0.40;;;22.50;99.90;;;;;;4988063;28;20097;-35
2023/06/30 11:35:35;;;;;;;4.30;0.90;;;22.70;99.90;;;;;;4989064;28;20133;-36
2023/06/30 11:38:01;;;;;;;2.10;0.60;;;22.80;99.90;;;;;;4973751;28;20046;-36
2023/06/30 11:40:27;;;;;;;3.15;0.70;;;22.80;99.90;;;;;;4985549;28;20054;-35
2023/06/30 11:42:53;;;;;;;1.02;0.40;;;22.70;99.90;;;;;;4989076;28;20046;-35
2023/06/30 11:45:27;;;;;;;1.25;0.68;;;22.50;99.90;;;;;;4989176;28;20403;-35
2023/06/30 11:47:54;;;;;;;3.50;0.70;;;22.60;99.90;;;;;;4989336;28;20116;-36
2023/06/30 11:50:20;;;;;;;1.63;0.70;;;22.60;99.90;;;;;;4989650;28;20495;-35
2023/06/30 11:52:48;;;;;;;2.65;1.25;;;22.70;99.90;;;;;;4984859;28;20074;-36
2023/06/30 11:55:14;;;;;;;2.92;1.20;;;22.80;99.90;;;;;;4989850;28;20507;-35
2023/06/30 11:57:42;;;;;;;4.93;0.82;;;22.80;99.90;;;;;;4983539;28;20054;-35
2023/06/30 12:00:22;;;;;;;3.55;0.98;;;22.90;99.90;;;;;;4983823;28;20064;-35
2023/06/30 12:02:48;;;;;;;2.53;0.90;;;22.70;99.90;;;;;;4985801;28;20093;-35
2023/06/30 12:05:16;;;;;;;2.78;1.20;;;22.50;99.90;;;;;;4988674;28;20166;-36
2023/06/30 12:07:42;;;;;;;2.05;0.80;;;22.40;99.90;;;;;;4986321;28;20046;-35
2023/06/30 12:10:09;;;;;;;2.15;0.80;;;22.40;99.90;;;;;;4987394;28;20129;-35
2023/06/30 12:12:35;;;;;;;2.72;0.95;;;22.60;99.90;;;;;;4983656;28;20484;-35
2023/06/30 12:15:08;;;;;;;1.85;0.90;;;22.60;99.90;;;;;;4985068;28;20051;-36
2023/06/30 12:17:36;;;;;;;1.23;0.73;;;22.60;99.90;;;;;;4985920;28;20137;-35
2023/06/30 12:20:02;;;;;;;4.13;0.80;;;22.80;99.90;;;;;;4989110;28;20061;-35
2023/06/30 12:22:28;;;;;;;2.03;0.80;;;22.80;99.90;;;;;;4982425;28;20057;-35
2023/06/30 12:24:55;;;;;;;2.50;0.90;;;22.90;99.90;;;;;;4983523;28;20770;-35
2023/06/30 12:27:21;;;;;;;2.47;0.80;;;22.90;99.90;;;;;;4987449;28;20137;-36
2023/06/30 12:29:47;;;;;;;2.65;0.70;;;22.90;99.90;;;;;;4986444;28;20129;-35
2023/06/30 12:32:13;;;;;;;2.00;0.90;;;23.00;99.90;;;;;;4982177;28;20479;-35
2023/06/30 12:34:39;;;;;;;2.25;0.80;;;23.20;99.90;;;;;;4969585;28;20141;-35
2023/06/30 12:37:05;;;;;;;2.80;0.80;;;23.40;99.90;;;;;;4985079;28;20524;-36
2023/06/30 12:39:32;;;;;;;4.05;1.77;;;23.40;99.90;;;;;;4988539;28;20149;-35
2023/06/30 12:41:57;;;;;;;3.58;1.13;;;23.50;99.90;;;;;;4970796;28;20057;-36
2023/06/30 12:44:23;;;;;;;3.38;0.90;;;23.60;99.90;;;;;;4985756;28;20050;-36
2023/06/30 12:47:06;;;;;;;2.13;0.60;;;23.70;99.90;;;;;;4984277;28;20066;-36
2023/06/30 12:49:33;;;;;;;2.17;0.90;;;23.70;99.90;;;;;;4985710;28;20077;-35
2023/06/30 12:51:59;;;;;;;5.50;1.83;;;23.80;99.90;;;;;;4981079;28;20058;-35